John P. Tully — CG2958 — position and weather

sailwx.info

Track history (hours):
 
Tides and Currents Weather Stations Pressure Air Temp Water Temp Dewpoint Dewpoint Depression Visibility Wind Speed Wind Dir Waves Ship Positions

Oceanographic research ship John P. Tully (Canada)

Detailed information on ship capabilities available from University of Delaware's Ocean Information Center.

Last reported at 2020-Jul-15 11:58 UTC. Time now 2020-Jul-15 18:07 UTC.
Position N 48°39' W 123°27'.

Length 68.9 m; beam 14.5 m; draft 4.5 m.

Type: SAR. MMSI: 316114000.

Date/timePositionNaut miles runAvg speedWind from/ knotsBaromVisibWave heightAir tempDewpointWater temp
2020-Jul-15 11:58N 48°39' W 123°27'0 0.0
2020-Jul-15 10:28N 48°39' W 123°27'0 0.0
2020-Jul-15 05:58N 48°39' W 123°27'0 0.0
2020-Jul-15 04:28N 48°39' W 123°27'0 0.0
2020-Jul-15 03:58N 48°39' W 123°27'0 0.0
2020-Jul-15 02:28N 48°39' W 123°27'0 0.0
2020-Jul-15 00:25N 48°39' W 123°27'0 0.0
2020-Jul-14 23:28N 48°39' W 123°27'0 0.0
2020-Jul-14 21:28N 48°39' W 123°27'0 0.0
2020-Jul-14 20:58N 48°39' W 123°27'0 0.0
2020-Jul-14 20:25N 48°39' W 123°27'0 0.0
2020-Jul-14 18:28N 48°39' W 123°27'0 0.0
2020-Jul-14 15:59N 48°39' W 123°27'0 0.0
2020-Jul-14 15:29N 48°39' W 123°27'0 0.0
2020-Jul-14 13:59N 48°39' W 123°27'0 0.0
2020-Jul-14 13:29N 48°39' W 123°27'0 0.0
2020-Jul-14 07:00N 48°39' W 123°27'0 0.0
2020-Jul-14 06:30N 48°39' W 123°27'0 0.0
2020-Jul-14 05:00N 48°39' W 123°27'0 0.0
2020-Jul-14 03:30N 48°39' W 123°27'0 0.0
2020-Jul-14 02:30N 48°39' W 123°27'0 0.0
2020-Jul-14 01:30N 48°39' W 123°27'0 0.0
2020-Jul-14 00:30N 48°39' W 123°27'0 0.0
2020-Jul-13 18:00N 48°39' W 123°27'0 0.0
2020-Jul-13 17:00N 48°39' W 123°27'0 0.0
2020-Jul-13 13:28N 48°39' W 123°27'0 0.0
2020-Jul-13 12:58N 48°39' W 123°27'0 0.0
2020-Jul-13 07:58N 48°39' W 123°27'0 0.0
2020-Jul-13 02:58N 48°39' W 123°27'0 0.0
2020-Jul-12 22:28N 48°39' W 123°27'0 0.0
2020-Jul-12 21:58N 48°39' W 123°27'0 0.0
2020-Jul-12 18:58N 48°39' W 123°27'0 0.0
2020-Jul-12 18:28N 48°39' W 123°27'1 0.2
2020-Jul-12 14:30N 48°39' W 123°28'1 1.3
2020-Jul-12 13:30N 48°39' W 123°30'0 0.4
2020-Jul-12 12:30N 48°40' W 123°30'0 0.2
2020-Jul-12 11:00N 48°40' W 123°30'2 0.6
2020-Jul-12 07:30N 48°42' W 123°30'11 4.5
2020-Jul-12 05:00N 48°37' W 123°15'6 1.8
2020-Jul-12 01:30N 48°44' W 123°15'10 6.7
2020-Jul-12 00:00N 48°48' W 123°01'7 5.0
2020-Jul-11 22:31N 48°51' W 123°11'14 9.6
2020-Jul-11 21:00N 49°02' W 123°26'9 4.4
2020-Jul-11 19:00N 49°09' W 123°32'14 4.1
2020-Jul-11 15:31N 49°19' W 123°16'10 4.9
2020-Jul-11 13:30N 49°18' W 123°01'4 1.5
2020-Jul-11 10:59N 49°20' W 122°56'0 0.0
2020-Jul-11 08:59N 49°20' W 122°56'0 0.0
2020-Jul-11 07:59N 49°20' W 122°56'0 0.0
2020-Jul-11 03:29N 49°20' W 122°56'0 0.1
2020-Jul-11 02:59N 49°20' W 122°56'1 1.4
2020-Jul-11 02:31N 49°19' W 122°56'2 3.9
2020-Jul-11 02:01N 49°17' W 122°54'4 3.6
2020-Jul-11 01:00N 49°21' W 122°54'4 1.5
2020-Jul-10 22:31N 49°25' W 122°52'4 1.4
2020-Jul-10 19:31N 49°21' W 122°54'1 1.7
2020-Jul-10 19:01N 49°20' W 122°54'7 2.3
2020-Jul-10 16:01N 49°18' W 123°04'1 1.0
2020-Jul-10 15:01N 49°18' W 123°06'9 6.1
2020-Jul-10 13:31N 49°18' W 123°20'11 7.3
2020-Jul-10 12:00N 49°16' W 123°37'6 5.5
2020-Jul-10 11:00N 49°15' W 123°45'5 2.0
2020-Jul-10 08:30N 49°19' W 123°49'13 6.7
2020-Jul-10 06:30N 49°24' W 124°09'1 1.0
2020-Jul-10 06:00N 49°24' W 124°09'4 8.9
2020-Jul-10 05:30N 49°25' W 124°16'20 6.1
2020-Jul-10 02:19N 49°29' W 124°45'3 9.4
2020-Jul-10 02:00N 49°28' W 124°41'4 9.2
2020-Jul-10 01:30N 49°28' W 124°34'3 5.3
2020-Jul-10 01:00N 49°28' W 124°30'0 0.2
2020-Jul-10 00:30N 49°28' W 124°30'8 3.1
2020-Jul-09 22:01N 49°35' W 124°35'19 9.6
2020-Jul-09 20:00N 49°29' W 124°06'17 4.2
2020-Jul-09 15:56N 49°46' W 124°14'2 1.7
2020-Jul-09 15:00N 49°46' W 124°12'2 0.2
2020-Jul-09 08:39N 49°46' W 124°10'0 0.7
2020-Jul-09 08:25N 49°46' W 124°10'5 3.4
2020-Jul-09 07:00N 49°44' W 124°16'9 8.6
2020-Jul-09 06:00N 49°46' W 124°29'8 2.7
2020-Jul-09 03:01N 49°44' W 124°41'22 4.3
2020-Jul-08 21:59N 49°56' W 125°09'14 9.3
2020-Jul-08 20:30N 50°08' W 125°21'10 2.6
2020-Jul-08 16:39N 50°17' W 125°26'3 2.1
2020-Jul-08 15:27N 50°20' W 125°26'85 8.4
2020-Jul-08 05:18N 50°51' W 127°30'16 6.8
2020-Jul-08 03:00N 51°00' W 127°50'35 8.9
2020-Jul-07 23:00N 50°59' W 128°46'28 2.4
2020-Jul-07 11:30N 51°15' W 129°21'4 7.3
2020-Jul-07 10:54N 51°17' W 129°15'29 8.6
2020-Jul-07 07:30N 51°28' W 128°31'13 6.3
2020-Jul-07 05:30N 51°23' W 128°13'510.2
2020-Jul-07 05:00N 51°20' W 128°05'11 7.3
2020-Jul-07 03:31N 51°24' W 127°49'1 1.8
2020-Jul-07 03:00N 51°25' W 127°48'23 7.6
2020-Jul-07 00:00N 51°02' W 127°47'14 8.9
2020-Jul-06 22:27N 50°52' W 127°32'2 0.5
2020-Jul-06 19:00N 50°51' W 127°30'710.1
2020-Jul-06 18:22N 50°54' W 127°39'8 9.5
2020-Jul-06 17:30N 50°59' W 127°49'5 9.6
2020-Jul-06 17:00N 51°01' W 127°56'26 5.3
2020-Jul-06 12:00N 51°09' W 128°36'7 6.5
2020-Jul-06 11:00N 51°05' W 128°44'5 5.2
2020-Jul-06 10:01N 51°01' W 128°50'1 2.7
2020-Jul-06 09:31N 51°00' W 128°52'6 6.3
2020-Jul-06 08:30N 50°56' W 128°45'4 8.0
2020-Jul-06 08:00N 50°53' W 128°40'24 6.9
2020-Jul-06 04:30N 50°59' W 129°17'4 2.3
2020-Jul-06 02:46N 50°57' W 129°23'16 3.2
2020-Jul-05 21:46N 50°41' W 129°28'  
Track history (hours):
 
Tides and Currents Weather Stations Pressure Air Temp Water Temp Dewpoint Dewpoint Depression Visibility Wind Speed Wind Dir Waves Ship Positions

Oceanographic research ship John P. Tully (Canada)

Detailed information on ship capabilities available from University of Delaware's Ocean Information Center.

Last reported at 2020-Jul-15 11:58 UTC. Time now 2020-Jul-15 18:07 UTC.
Position N 48°39' W 123°27'.

Length 68.9 m; beam 14.5 m; draft 4.5 m.

Type: SAR. MMSI: 316114000.

Date/timePositionNaut miles runAvg speedWind from/ knotsBaromVisibWave heightAir tempDewpointWater temp
2020-Jul-15 11:58N 48°39' W 123°27'0 0.0
2020-Jul-15 10:28N 48°39' W 123°27'0 0.0
2020-Jul-15 05:58N 48°39' W 123°27'0 0.0
2020-Jul-15 04:28N 48°39' W 123°27'0 0.0
2020-Jul-15 03:58N 48°39' W 123°27'0 0.0
2020-Jul-15 02:28N 48°39' W 123°27'0 0.0
2020-Jul-15 00:25N 48°39' W 123°27'0 0.0
2020-Jul-14 23:28N 48°39' W 123°27'0 0.0
2020-Jul-14 21:28N 48°39' W 123°27'0 0.0
2020-Jul-14 20:58N 48°39' W 123°27'0 0.0
2020-Jul-14 20:25N 48°39' W 123°27'0 0.0
2020-Jul-14 18:28N 48°39' W 123°27'0 0.0
2020-Jul-14 15:59N 48°39' W 123°27'0 0.0
2020-Jul-14 15:29N 48°39' W 123°27'0 0.0
2020-Jul-14 13:59N 48°39' W 123°27'0 0.0
2020-Jul-14 13:29N 48°39' W 123°27'0 0.0
2020-Jul-14 07:00N 48°39' W 123°27'0 0.0
2020-Jul-14 06:30N 48°39' W 123°27'0 0.0
2020-Jul-14 05:00N 48°39' W 123°27'0 0.0
2020-Jul-14 03:30N 48°39' W 123°27'0 0.0
2020-Jul-14 02:30N 48°39' W 123°27'0 0.0
2020-Jul-14 01:30N 48°39' W 123°27'0 0.0
2020-Jul-14 00:30N 48°39' W 123°27'0 0.0
2020-Jul-13 18:00N 48°39' W 123°27'0 0.0
2020-Jul-13 17:00N 48°39' W 123°27'0 0.0
2020-Jul-13 13:28N 48°39' W 123°27'0 0.0
2020-Jul-13 12:58N 48°39' W 123°27'0 0.0
2020-Jul-13 07:58N 48°39' W 123°27'0 0.0
2020-Jul-13 02:58N 48°39' W 123°27'0 0.0
2020-Jul-12 22:28N 48°39' W 123°27'0 0.0
2020-Jul-12 21:58N 48°39' W 123°27'0 0.0
2020-Jul-12 18:58N 48°39' W 123°27'0 0.0
2020-Jul-12 18:28N 48°39' W 123°27'1 0.2
2020-Jul-12 14:30N 48°39' W 123°28'1 1.3
2020-Jul-12 13:30N 48°39' W 123°30'0 0.4
2020-Jul-12 12:30N 48°40' W 123°30'0 0.2
2020-Jul-12 11:00N 48°40' W 123°30'2 0.6
2020-Jul-12 07:30N 48°42' W 123°30'11 4.5
2020-Jul-12 05:00N 48°37' W 123°15'6 1.8
2020-Jul-12 01:30N 48°44' W 123°15'10 6.7
2020-Jul-12 00:00N 48°48' W 123°01'7 5.0
2020-Jul-11 22:31N 48°51' W 123°11'14 9.6
2020-Jul-11 21:00N 49°02' W 123°26'9 4.4
2020-Jul-11 19:00N 49°09' W 123°32'14 4.1
2020-Jul-11 15:31N 49°19' W 123°16'10 4.9
2020-Jul-11 13:30N 49°18' W 123°01'4 1.5
2020-Jul-11 10:59N 49°20' W 122°56'0 0.0
2020-Jul-11 08:59N 49°20' W 122°56'0 0.0
2020-Jul-11 07:59N 49°20' W 122°56'0 0.0
2020-Jul-11 03:29N 49°20' W 122°56'0 0.1
2020-Jul-11 02:59N 49°20' W 122°56'1 1.4
2020-Jul-11 02:31N 49°19' W 122°56'2 3.9
2020-Jul-11 02:01N 49°17' W 122°54'4 3.6
2020-Jul-11 01:00N 49°21' W 122°54'4 1.5
2020-Jul-10 22:31N 49°25' W 122°52'4 1.4
2020-Jul-10 19:31N 49°21' W 122°54'1 1.7
2020-Jul-10 19:01N 49°20' W 122°54'7 2.3
2020-Jul-10 16:01N 49°18' W 123°04'1 1.0
2020-Jul-10 15:01N 49°18' W 123°06'9 6.1
2020-Jul-10 13:31N 49°18' W 123°20'11 7.3
2020-Jul-10 12:00N 49°16' W 123°37'6 5.5
2020-Jul-10 11:00N 49°15' W 123°45'5 2.0
2020-Jul-10 08:30N 49°19' W 123°49'13 6.7
2020-Jul-10 06:30N 49°24' W 124°09'1 1.0
2020-Jul-10 06:00N 49°24' W 124°09'4 8.9
2020-Jul-10 05:30N 49°25' W 124°16'20 6.1
2020-Jul-10 02:19N 49°29' W 124°45'3 9.4
2020-Jul-10 02:00N 49°28' W 124°41'4 9.2
2020-Jul-10 01:30N 49°28' W 124°34'3 5.3
2020-Jul-10 01:00N 49°28' W 124°30'0 0.2
2020-Jul-10 00:30N 49°28' W 124°30'8 3.1
2020-Jul-09 22:01N 49°35' W 124°35'19 9.6
2020-Jul-09 20:00N 49°29' W 124°06'17 4.2
2020-Jul-09 15:56N 49°46' W 124°14'2 1.7
2020-Jul-09 15:00N 49°46' W 124°12'2 0.2
2020-Jul-09 08:39N 49°46' W 124°10'0 0.7
2020-Jul-09 08:25N 49°46' W 124°10'5 3.4
2020-Jul-09 07:00N 49°44' W 124°16'9 8.6
2020-Jul-09 06:00N 49°46' W 124°29'8 2.7
2020-Jul-09 03:01N 49°44' W 124°41'22 4.3
2020-Jul-08 21:59N 49°56' W 125°09'14 9.3
2020-Jul-08 20:30N 50°08' W 125°21'10 2.6
2020-Jul-08 16:39N 50°17' W 125°26'3 2.1
2020-Jul-08 15:27N 50°20' W 125°26'85 8.4
2020-Jul-08 05:18N 50°51' W 127°30'16 6.8
2020-Jul-08 03:00N 51°00' W 127°50'35 8.9
2020-Jul-07 23:00N 50°59' W 128°46'28 2.4
2020-Jul-07 11:30N 51°15' W 129°21'4 7.3
2020-Jul-07 10:54N 51°17' W 129°15'29 8.6
2020-Jul-07 07:30N 51°28' W 128°31'13 6.3
2020-Jul-07 05:30N 51°23' W 128°13'510.2
2020-Jul-07 05:00N 51°20' W 128°05'11 7.3
2020-Jul-07 03:31N 51°24' W 127°49'1 1.8
2020-Jul-07 03:00N 51°25' W 127°48'23 7.6
2020-Jul-07 00:00N 51°02' W 127°47'14 8.9
2020-Jul-06 22:27N 50°52' W 127°32'2 0.5
2020-Jul-06 19:00N 50°51' W 127°30'710.1
2020-Jul-06 18:22N 50°54' W 127°39'8 9.5
2020-Jul-06 17:30N 50°59' W 127°49'5 9.6
2020-Jul-06 17:00N 51°01' W 127°56'26 5.3
2020-Jul-06 12:00N 51°09' W 128°36'7 6.5
2020-Jul-06 11:00N 51°05' W 128°44'5 5.2
2020-Jul-06 10:01N 51°01' W 128°50'1 2.7
2020-Jul-06 09:31N 51°00' W 128°52'6 6.3
2020-Jul-06 08:30N 50°56' W 128°45'4 8.0
2020-Jul-06 08:00N 50°53' W 128°40'24 6.9
2020-Jul-06 04:30N 50°59' W 129°17'4 2.3
2020-Jul-06 02:46N 50°57' W 129°23'16 3.2
2020-Jul-05 21:46N 50°41' W 129°28'  

Dump ship's entire track history